ITY785 KMCO-LIMC
Flight info
| Callsign | ITY785 |
|---|---|
| Flight time | N/A |
| Altitude | 37000 |
| Route | MZULO3 ETECK KR90W JAINS 3768N 3760N 3850N 3940N 3930N 4020N ERPES DIRMA BARDI PINAR PONEN PIVUS DIBER NETUP STP RAPED PIGOS EKSID NOSTA NOPMU ANAKI P860 DEVOX |
| Aircraft | A359/H-SDE2E3GHIJ3J4J5LM1ORWXY/LB1D1 |
Departure
| Time | 2026-04-25 11:45 |
|---|---|
| Airport | Orlando International Airport (KMCO) |
Arrival
| Time | N/A |
|---|---|
| Airport | Milan Malpensa International Airport (LIMC) |
| Time | Latitude | Longitude | Altitude | Speed | Heading |
|---|---|---|---|---|---|
| 2026-04-25 10:24 | 28.42691 | -81.31548 | 108 ft | 0 kts | 124° |
| 2026-04-25 11:10 | 28.42696 | -81.31557 | 106 ft | 3 kts | 124° |
| 2026-04-25 11:10 | 28.42706 | -81.31576 | 107 ft | 3 kts | 112° |
| 2026-04-25 11:11 | 28.42713 | -81.31596 | 107 ft | 3 kts | 112° |
| 2026-04-25 11:11 | 28.42721 | -81.31615 | 104 ft | 3 kts | 118° |
| 2026-04-25 11:11 | 28.42729 | -81.31633 | 106 ft | 3 kts | 118° |
| 2026-04-25 11:11 | 28.42738 | -81.31652 | 105 ft | 3 kts | 142° |
| 2026-04-25 11:12 | 28.42750 | -81.31661 | 104 ft | 0 kts | 172° |
| 2026-04-25 11:14 | 28.42719 | -81.31654 | 107 ft | 10 kts | 167° |
| 2026-04-25 11:14 | 28.42656 | -81.31639 | 105 ft | 8 kts | 166° |
| 2026-04-25 11:14 | 28.42651 | -81.31638 | 105 ft | 0 kts | 167° |
| 2026-04-25 11:19 | 28.42637 | -81.31634 | 106 ft | 6 kts | 166° |
| 2026-04-25 11:19 | 28.42590 | -81.31622 | 106 ft | 7 kts | 162° |
| 2026-04-25 11:19 | 28.42526 | -81.31612 | 106 ft | 11 kts | 179° |
| 2026-04-25 11:20 | 28.42462 | -81.31625 | 108 ft | 6 kts | 202° |
| 2026-04-25 11:20 | 28.42458 | -81.31628 | 107 ft | 0 kts | 208° |
| 2026-04-25 11:22 | 28.42457 | -81.31628 | 108 ft | 1 kts | 208° |
| 2026-04-25 11:22 | 28.42429 | -81.31645 | 108 ft | 12 kts | 212° |
| 2026-04-25 11:22 | 28.42353 | -81.31624 | 108 ft | 10 kts | 114° |
| 2026-04-25 11:22 | 28.42348 | -81.31537 | 108 ft | 12 kts | 89° |
| 2026-04-25 11:23 | 28.42348 | -81.31438 | 107 ft | 13 kts | 87° |
| 2026-04-25 11:23 | 28.42349 | -81.31327 | 106 ft | 15 kts | 92° |
| 2026-04-25 11:23 | 28.42340 | -81.31227 | 106 ft | 12 kts | 94° |
| 2026-04-25 11:23 | 28.42332 | -81.31133 | 106 ft | 12 kts | 98° |
| 2026-04-25 11:24 | 28.42321 | -81.31036 | 106 ft | 12 kts | 92° |
| 2026-04-25 11:24 | 28.42320 | -81.30944 | 106 ft | 12 kts | 90° |
| 2026-04-25 11:24 | 28.42322 | -81.30848 | 106 ft | 13 kts | 85° |
| 2026-04-25 11:24 | 28.42329 | -81.30769 | 108 ft | 7 kts | 84° |
| 2026-04-25 11:25 | 28.42335 | -81.30699 | 110 ft | 14 kts | 86° |
| 2026-04-25 11:25 | 28.42344 | -81.30561 | 109 ft | 18 kts | 83° |
| 2026-04-25 11:25 | 28.42354 | -81.30407 | 107 ft | 22 kts | 85° |
| 2026-04-25 11:25 | 28.42356 | -81.30239 | 109 ft | 21 kts | 87° |
| 2026-04-25 11:26 | 28.42360 | -81.30081 | 107 ft | 20 kts | 89° |
| 2026-04-25 11:26 | 28.42363 | -81.29933 | 110 ft | 15 kts | 90° |
| 2026-04-25 11:26 | 28.42380 | -81.29832 | 107 ft | 12 kts | 56° |
| 2026-04-25 11:26 | 28.42443 | -81.29796 | 107 ft | 10 kts | 12° |
| 2026-04-25 11:27 | 28.42481 | -81.29794 | 107 ft | 0 kts | 2° |
| 2026-04-25 11:27 | 28.42514 | -81.29793 | 107 ft | 14 kts | 0° |
| 2026-04-25 11:27 | 28.42659 | -81.29797 | 108 ft | 25 kts | 359° |
| 2026-04-25 11:27 | 28.42764 | -81.29797 | 107 ft | 20 kts | 1° |
| 2026-04-25 11:28 | 28.42952 | -81.29797 | 107 ft | 20 kts | 355° |
| 2026-04-25 11:28 | 28.43080 | -81.29798 | 107 ft | 19 kts | 0° |
| 2026-04-25 11:28 | 28.43200 | -81.29801 | 109 ft | 16 kts | 360° |
| 2026-04-25 11:28 | 28.43303 | -81.29801 | 109 ft | 15 kts | 0° |
| 2026-04-25 11:29 | 28.43393 | -81.29801 | 109 ft | 6 kts | 3° |
| 2026-04-25 11:29 | 28.43414 | -81.29796 | 109 ft | 0 kts | 19° |
| 2026-04-25 11:29 | 28.43414 | -81.29795 | 109 ft | 0 kts | 19° |
| 2026-04-25 11:29 | 28.43430 | -81.29791 | 109 ft | 3 kts | 0° |
| 2026-04-25 11:30 | 28.43472 | -81.29797 | 109 ft | 10 kts | 352° |
| 2026-04-25 11:30 | 28.43524 | -81.29791 | 106 ft | 3 kts | 22° |
| 2026-04-25 11:30 | 28.43528 | -81.29789 | 108 ft | 0 kts | 27° |
| 2026-04-25 11:35 | 28.43533 | -81.29785 | 108 ft | 5 kts | 33° |
| 2026-04-25 11:35 | 28.43551 | -81.29740 | 107 ft | 7 kts | 86° |
| 2026-04-25 11:35 | 28.43550 | -81.29731 | 107 ft | 0 kts | 90° |
| 2026-04-25 11:41 | 28.43550 | -81.29730 | 109 ft | 1 kts | 90° |
| 2026-04-25 11:41 | 28.43550 | -81.29685 | 107 ft | 11 kts | 90° |
| 2026-04-25 11:42 | 28.43538 | -81.29606 | 107 ft | 9 kts | 132° |
| 2026-04-25 11:42 | 28.43488 | -81.29588 | 109 ft | 0 kts | 180° |
| 2026-04-25 11:44 | 28.43331 | -81.29587 | 113 ft | 53 kts | 179° |
| 2026-04-25 11:44 | 28.42750 | -81.29581 | 107 ft | 112 kts | 180° |
| 2026-04-25 11:44 | 28.41807 | -81.29569 | 121 ft | 158 kts | 179° |
| 2026-04-25 11:44 | 28.40738 | -81.29560 | 655 ft | 154 kts | 181° |
| 2026-04-25 11:45 | 28.39657 | -81.29551 | 1290 ft | 153 kts | 179° |
| 2026-04-25 11:45 | 28.38552 | -81.29372 | 1495 ft | 168 kts | 168° |
| 2026-04-25 11:45 | 28.37425 | -81.28814 | 1661 ft | 186 kts | 152° |
| 2026-04-25 11:45 | 28.36307 | -81.27998 | 1821 ft | 202 kts | 149° |
| 2026-04-25 11:46 | 28.35082 | -81.27034 | 1927 ft | 225 kts | 144° |
| 2026-04-25 11:46 | 28.33899 | -81.25759 | 2124 ft | 244 kts | 135° |
| 2026-04-25 11:46 | 28.32723 | -81.24303 | 2482 ft | 255 kts | 134° |
| 2026-04-25 11:46 | 28.31517 | -81.22800 | 2967 ft | 260 kts | 134° |
| 2026-04-25 11:47 | 28.30287 | -81.21276 | 3500 ft | 263 kts | 134° |
| 2026-04-25 11:47 | 28.29041 | -81.19740 | 4041 ft | 266 kts | 133° |
| 2026-04-25 11:47 | 28.27770 | -81.18178 | 4573 ft | 269 kts | 133° |
| 2026-04-25 11:47 | 28.26511 | -81.16616 | 5123 ft | 272 kts | 130° |
| 2026-04-25 11:48 | 28.25497 | -81.14803 | 5606 ft | 275 kts | 112° |
| 2026-04-25 11:48 | 28.25121 | -81.12698 | 6132 ft | 276 kts | 88° |
| 2026-04-25 11:48 | 28.25614 | -81.10608 | 6622 ft | 276 kts | 59° |
| 2026-04-25 11:48 | 28.26789 | -81.08883 | 7139 ft | 277 kts | 48° |
| 2026-04-25 11:49 | 28.28102 | -81.07259 | 7640 ft | 280 kts | 47° |
| 2026-04-25 11:49 | 28.29428 | -81.05625 | 8146 ft | 283 kts | 47° |
| 2026-04-25 11:49 | 28.30315 | -81.04520 | 8488 ft | 286 kts | 47° |
| 2026-04-25 11:49 | 28.32108 | -81.02268 | 9187 ft | 289 kts | 47° |
| 2026-04-25 11:50 | 28.33448 | -81.00573 | 9714 ft | 292 kts | 47° |
| 2026-04-25 11:50 | 28.34811 | -80.98845 | 10158 ft | 297 kts | 47° |
| 2026-04-25 11:50 | 28.35756 | -80.97646 | 10328 ft | 306 kts | 47° |
| 2026-04-25 11:50 | 28.37203 | -80.95808 | 10527 ft | 319 kts | 47° |
| 2026-04-25 11:51 | 28.38714 | -80.93886 | 10736 ft | 332 kts | 47° |
| 2026-04-25 11:51 | 28.40274 | -80.91899 | 10959 ft | 343 kts | 47° |
| 2026-04-25 11:51 | 28.41891 | -80.89841 | 11149 ft | 355 kts | 47° |
| 2026-04-25 11:51 | 28.43536 | -80.87746 | 11350 ft | 365 kts | 47° |
| 2026-04-25 11:52 | 28.45251 | -80.85561 | 11530 ft | 375 kts | 47° |
| 2026-04-25 11:52 | 28.46855 | -80.83204 | 11826 ft | 382 kts | 58° |
| 2026-04-25 11:52 | 28.47847 | -80.80389 | 12204 ft | 388 kts | 77° |
| 2026-04-25 11:52 | 28.48281 | -80.77336 | 12576 ft | 392 kts | 82° |
| 2026-04-25 11:53 | 28.48609 | -80.74241 | 12931 ft | 395 kts | 83° |
| 2026-04-25 11:53 | 28.48935 | -80.71128 | 13301 ft | 398 kts | 82° |
| 2026-04-25 11:53 | 28.49269 | -80.68002 | 13670 ft | 400 kts | 82° |
| 2026-04-25 11:53 | 28.49611 | -80.64854 | 13968 ft | 402 kts | 82° |
| 2026-04-25 11:54 | 28.49959 | -80.61680 | 14254 ft | 405 kts | 82° |
| 2026-04-25 11:54 | 28.50309 | -80.58492 | 14579 ft | 407 kts | 82° |
| 2026-04-25 11:54 | 28.51011 | -80.52097 | 15231 ft | 412 kts | 82° |
| 2026-04-25 11:55 | 28.51371 | -80.48816 | 15551 ft | 415 kts | 82° |
| 2026-04-25 11:55 | 28.51724 | -80.45597 | 15868 ft | 418 kts | 82° |
| 2026-04-25 11:55 | 28.52084 | -80.42303 | 16203 ft | 420 kts | 82° |
| 2026-04-25 11:55 | 28.52445 | -80.38989 | 16528 ft | 423 kts | 82° |
| 2026-04-25 11:56 | 28.52806 | -80.35663 | 16841 ft | 425 kts | 82° |
| 2026-04-25 11:56 | 28.53171 | -80.32316 | 17158 ft | 428 kts | 81° |
| 2026-04-25 11:56 | 28.53734 | -80.28985 | 17463 ft | 429 kts | 72° |
| 2026-04-25 11:56 | 28.54764 | -80.25800 | 17794 ft | 429 kts | 65° |
| 2026-04-25 11:57 | 28.55950 | -80.22664 | 18121 ft | 430 kts | 64° |
| 2026-04-25 11:57 | 28.57151 | -80.19533 | 18400 ft | 433 kts | 64° |
| 2026-04-25 11:57 | 28.58352 | -80.16390 | 18698 ft | 435 kts | 64° |
| 2026-04-25 11:57 | 28.59556 | -80.13225 | 18952 ft | 437 kts | 64° |
| 2026-04-25 11:58 | 28.60753 | -80.10070 | 19260 ft | 438 kts | 64° |
| 2026-04-25 11:58 | 28.61962 | -80.06878 | 19548 ft | 439 kts | 64° |
| 2026-04-25 11:58 | 28.63174 | -80.03674 | 19825 ft | 441 kts | 64° |
| 2026-04-25 11:58 | 28.64387 | -80.00463 | 20106 ft | 442 kts | 64° |
| 2026-04-25 11:59 | 28.65604 | -79.97238 | 20374 ft | 444 kts | 65° |
| 2026-04-25 11:59 | 28.66824 | -79.94000 | 20645 ft | 445 kts | 65° |
| 2026-04-25 11:59 | 28.68047 | -79.90752 | 20915 ft | 447 kts | 65° |
| 2026-04-25 12:00 | 28.70503 | -79.84223 | 21439 ft | 449 kts | 65° |
| 2026-04-25 12:00 | 28.71733 | -79.80948 | 21698 ft | 451 kts | 65° |
| 2026-04-25 12:00 | 28.74208 | -79.74350 | 22196 ft | 454 kts | 65° |
| 2026-04-25 12:01 | 28.75434 | -79.71078 | 22455 ft | 455 kts | 65° |
| 2026-04-25 12:01 | 28.76615 | -79.67923 | 22684 ft | 457 kts | 65° |
| 2026-04-25 12:01 | 28.77866 | -79.64579 | 22925 ft | 458 kts | 65° |
| 2026-04-25 12:01 | 28.79118 | -79.61227 | 23183 ft | 460 kts | 65° |
| 2026-04-25 12:02 | 28.81961 | -79.54693 | 23604 ft | 460 kts | 54° |
| 2026-04-25 12:02 | 28.83774 | -79.51714 | 23821 ft | 460 kts | 52° |
| 2026-04-25 12:02 | 28.85646 | -79.48745 | 24043 ft | 460 kts | 52° |
| 2026-04-25 12:03 | 28.87517 | -79.45781 | 24240 ft | 461 kts | 52° |
| 2026-04-25 12:03 | 28.89162 | -79.43169 | 24434 ft | 462 kts | 52° |
| 2026-04-25 12:03 | 28.91018 | -79.40217 | 24615 ft | 463 kts | 52° |
| 2026-04-25 12:03 | 28.92898 | -79.37222 | 24805 ft | 465 kts | 52° |
| 2026-04-25 12:04 | 28.94789 | -79.34207 | 24986 ft | 466 kts | 53° |
| 2026-04-25 12:04 | 28.96675 | -79.31197 | 25191 ft | 467 kts | 53° |
| 2026-04-25 12:04 | 28.98566 | -79.28175 | 25385 ft | 468 kts | 53° |
| 2026-04-25 12:04 | 29.00458 | -79.25150 | 25578 ft | 469 kts | 53° |
| 2026-04-25 12:05 | 29.02354 | -79.22118 | 25782 ft | 470 kts | 53° |
| 2026-04-25 12:05 | 29.04254 | -79.19076 | 25962 ft | 471 kts | 53° |
| 2026-04-25 12:05 | 29.06159 | -79.16023 | 26181 ft | 472 kts | 53° |
| 2026-04-25 12:05 | 29.08069 | -79.12961 | 26367 ft | 473 kts | 53° |
| 2026-04-25 12:06 | 29.09963 | -79.09921 | 26569 ft | 474 kts | 53° |
| 2026-04-25 12:06 | 29.11897 | -79.06816 | 26821 ft | 474 kts | 53° |
| 2026-04-25 12:06 | 29.13810 | -79.03740 | 26988 ft | 476 kts | 53° |
| 2026-04-25 12:06 | 29.15708 | -79.00687 | 27152 ft | 478 kts | 53° |
| 2026-04-25 12:07 | 29.17633 | -78.97594 | 27353 ft | 479 kts | 52° |
| 2026-04-25 12:07 | 29.19578 | -78.94486 | 27570 ft | 479 kts | 52° |
| 2026-04-25 12:07 | 29.21516 | -78.91383 | 27788 ft | 481 kts | 52° |
| 2026-04-25 12:07 | 29.23464 | -78.88252 | 27991 ft | 482 kts | 53° |
| 2026-04-25 12:08 | 29.25402 | -78.85118 | 28200 ft | 483 kts | 53° |
| 2026-04-25 12:08 | 29.27339 | -78.81970 | 28388 ft | 485 kts | 53° |
| 2026-04-25 12:08 | 29.29289 | -78.78805 | 28614 ft | 486 kts | 53° |
| 2026-04-25 12:08 | 29.31246 | -78.75646 | 28805 ft | 487 kts | 52° |
| 2026-04-25 12:09 | 29.33213 | -78.72479 | 29010 ft | 488 kts | 52° |
| 2026-04-25 12:09 | 29.35191 | -78.69287 | 29204 ft | 490 kts | 52° |
| 2026-04-25 12:09 | 29.37180 | -78.66115 | 29398 ft | 491 kts | 51° |
| 2026-04-25 12:09 | 29.39232 | -78.62973 | 29520 ft | 493 kts | 51° |
| 2026-04-25 12:10 | 29.41275 | -78.59866 | 29750 ft | 495 kts | 51° |
| 2026-04-25 12:10 | 29.43347 | -78.56712 | 29932 ft | 496 kts | 51° |
| 2026-04-25 12:10 | 29.45423 | -78.53546 | 30113 ft | 497 kts | 51° |
| 2026-04-25 12:10 | 29.47500 | -78.50373 | 30286 ft | 498 kts | 51° |
| 2026-04-25 12:11 | 29.49589 | -78.47185 | 30449 ft | 499 kts | 50° |
| 2026-04-25 12:11 | 29.51903 | -78.44226 | 30582 ft | 497 kts | 39° |
| 2026-04-25 12:11 | 29.54645 | -78.41821 | 30806 ft | 495 kts | 33° |
| 2026-04-25 12:11 | 29.57471 | -78.39558 | 31065 ft | 494 kts | 33° |
| 2026-04-25 12:12 | 29.60290 | -78.37268 | 31327 ft | 494 kts | 34° |
| 2026-04-25 12:12 | 29.62124 | -78.35720 | 31513 ft | 494 kts | 35° |
| 2026-04-25 12:12 | 29.65732 | -78.32530 | 31866 ft | 493 kts | 37° |
| 2026-04-25 12:12 | 29.68414 | -78.30057 | 32118 ft | 493 kts | 37° |
| 2026-04-25 12:13 | 29.71063 | -78.27564 | 32368 ft | 492 kts | 38° |
| 2026-04-25 12:13 | 29.73707 | -78.25051 | 32626 ft | 492 kts | 38° |
| 2026-04-25 12:13 | 29.76342 | -78.22538 | 32882 ft | 492 kts | 38° |
| 2026-04-25 12:13 | 29.78980 | -78.20023 | 32986 ft | 492 kts | 38° |
| 2026-04-25 12:14 | 29.84250 | -78.15004 | 32985 ft | 491 kts | 38° |
| 2026-04-25 12:14 | 29.89532 | -78.09981 | 32988 ft | 492 kts | 38° |
| 2026-04-25 12:15 | 29.94790 | -78.04977 | 32986 ft | 492 kts | 38° |
| 2026-04-25 12:15 | 30.00134 | -78.00054 | 32985 ft | 491 kts | 33° |
| 2026-04-25 12:16 | 30.05850 | -77.95747 | 32986 ft | 490 kts | 31° |
| 2026-04-25 12:16 | 30.11631 | -77.91532 | 32989 ft | 492 kts | 31° |
| 2026-04-25 12:17 | 30.17438 | -77.87322 | 32983 ft | 493 kts | 31° |
| 2026-04-25 12:17 | 30.23239 | -77.83103 | 32984 ft | 493 kts | 31° |
| 2026-04-25 12:18 | 30.29004 | -77.78896 | 32977 ft | 493 kts | 31° |
| 2026-04-25 12:18 | 30.34796 | -77.74662 | 32985 ft | 492 kts | 31° |
| 2026-04-25 12:19 | 30.43217 | -77.68493 | 32980 ft | 493 kts | 31° |
| 2026-04-25 12:20 | 30.49010 | -77.64243 | 32980 ft | 493 kts | 31° |
| 2026-04-25 12:20 | 30.54804 | -77.59987 | 32984 ft | 493 kts | 31° |
| 2026-04-25 12:21 | 30.60601 | -77.55722 | 32976 ft | 494 kts | 31° |
| 2026-04-25 12:21 | 30.66381 | -77.51464 | 32989 ft | 495 kts | 31° |
| 2026-04-25 12:22 | 30.72186 | -77.47180 | 32982 ft | 494 kts | 31° |
| 2026-04-25 12:22 | 30.77998 | -77.42886 | 32989 ft | 494 kts | 31° |
| 2026-04-25 12:23 | 30.83805 | -77.38588 | 32982 ft | 494 kts | 31° |
| 2026-04-25 12:23 | 30.89617 | -77.34282 | 32980 ft | 494 kts | 31° |
| 2026-04-25 12:24 | 30.95415 | -77.29980 | 32985 ft | 501 kts | 31° |
| 2026-04-25 12:24 | 31.01336 | -77.25579 | 32981 ft | 506 kts | 31° |
| 2026-04-25 12:25 | 31.07268 | -77.21164 | 32983 ft | 506 kts | 32° |
| 2026-04-25 12:25 | 31.13213 | -77.16732 | 32984 ft | 506 kts | 32° |
| 2026-04-25 12:26 | 31.19164 | -77.12288 | 32982 ft | 506 kts | 32° |
| 2026-04-25 12:26 | 31.25051 | -77.07886 | 32984 ft | 506 kts | 32° |
| 2026-04-25 12:27 | 31.30981 | -77.03445 | 32986 ft | 506 kts | 32° |
| 2026-04-25 12:27 | 31.36523 | -76.98375 | 32983 ft | 507 kts | 45° |
| 2026-04-25 12:28 | 31.41192 | -76.92170 | 32988 ft | 508 kts | 49° |
| 2026-04-25 12:28 | 31.45681 | -76.85782 | 32983 ft | 507 kts | 50° |
| 2026-04-25 12:29 | 31.50147 | -76.79367 | 32982 ft | 509 kts | 50° |
| 2026-04-25 12:29 | 31.54644 | -76.72936 | 32987 ft | 510 kts | 50° |
| 2026-04-25 12:30 | 31.59119 | -76.66554 | 32984 ft | 509 kts | 49° |
| 2026-04-25 12:30 | 31.63623 | -76.60127 | 32988 ft | 509 kts | 50° |
| 2026-04-25 12:31 | 31.68109 | -76.53717 | 32984 ft | 508 kts | 50° |
| 2026-04-25 12:31 | 31.72593 | -76.47296 | 32987 ft | 508 kts | 50° |
| 2026-04-25 12:32 | 31.77076 | -76.40862 | 32985 ft | 509 kts | 50° |
| 2026-04-25 12:32 | 31.81564 | -76.34410 | 32984 ft | 510 kts | 50° |
| 2026-04-25 12:33 | 31.86058 | -76.27941 | 32983 ft | 510 kts | 50° |
| 2026-04-25 12:33 | 31.90541 | -76.21478 | 32988 ft | 508 kts | 50° |
| 2026-04-25 12:34 | 31.95003 | -76.15033 | 32985 ft | 508 kts | 50° |
| 2026-04-25 12:34 | 31.99469 | -76.08570 | 32981 ft | 509 kts | 50° |
| 2026-04-25 12:35 | 32.03911 | -76.02131 | 32987 ft | 510 kts | 50° |
| 2026-04-25 12:35 | 32.08409 | -75.95598 | 32990 ft | 510 kts | 50° |
| 2026-04-25 12:36 | 32.12128 | -75.90191 | 32986 ft | 509 kts | 50° |
| 2026-04-25 12:36 | 32.16577 | -75.83712 | 32985 ft | 508 kts | 50° |
| 2026-04-25 12:37 | 32.21022 | -75.77226 | 32987 ft | 508 kts | 50° |
| 2026-04-25 12:37 | 32.25448 | -75.70758 | 32985 ft | 509 kts | 50° |
| 2026-04-25 12:38 | 32.29901 | -75.64238 | 32984 ft | 510 kts | 50° |
| 2026-04-25 12:38 | 32.34352 | -75.57710 | 32987 ft | 509 kts | 50° |
| 2026-04-25 12:39 | 32.38793 | -75.51184 | 32982 ft | 508 kts | 50° |
| 2026-04-25 12:39 | 32.43231 | -75.44654 | 32990 ft | 508 kts | 50° |
| 2026-04-25 12:40 | 32.47656 | -75.38131 | 32989 ft | 509 kts | 50° |
| 2026-04-25 12:40 | 32.52068 | -75.31613 | 32983 ft | 509 kts | 50° |
| 2026-04-25 12:41 | 32.56502 | -75.25056 | 32986 ft | 509 kts | 50° |
| 2026-04-25 12:41 | 32.60927 | -75.18498 | 32984 ft | 509 kts | 50° |
| 2026-04-25 12:42 | 32.65344 | -75.11939 | 32986 ft | 509 kts | 50° |
| 2026-04-25 12:42 | 32.69764 | -75.05365 | 32989 ft | 509 kts | 50° |
| 2026-04-25 12:43 | 32.74162 | -74.98814 | 32987 ft | 509 kts | 50° |
| 2026-04-25 12:43 | 32.80783 | -74.88927 | 32989 ft | 509 kts | 50° |
| 2026-04-25 12:44 | 32.85187 | -74.82331 | 32986 ft | 509 kts | 50° |
| 2026-04-25 12:45 | 32.91787 | -74.72434 | 32985 ft | 509 kts | 50° |
| 2026-04-25 12:45 | 32.98360 | -74.62554 | 32984 ft | 509 kts | 50° |
| 2026-04-25 12:46 | 33.02747 | -74.55942 | 32981 ft | 508 kts | 50° |
| 2026-04-25 12:46 | 33.07125 | -74.49323 | 32981 ft | 508 kts | 50° |
| 2026-04-25 12:47 | 33.11501 | -74.42704 | 32983 ft | 508 kts | 51° |
| 2026-04-25 12:47 | 33.15873 | -74.36082 | 32980 ft | 508 kts | 50° |
| 2026-04-25 12:48 | 33.20251 | -74.29440 | 32978 ft | 508 kts | 51° |
| 2026-04-25 12:48 | 33.24616 | -74.22797 | 32977 ft | 507 kts | 50° |
| 2026-04-25 12:49 | 33.28946 | -74.16143 | 32980 ft | 507 kts | 52° |
| 2026-04-25 12:49 | 33.33232 | -74.09523 | 32972 ft | 506 kts | 51° |
| 2026-04-25 12:50 | 33.37563 | -74.02870 | 32980 ft | 506 kts | 51° |
| 2026-04-25 12:50 | 33.41903 | -73.96220 | 32975 ft | 507 kts | 51° |
| 2026-04-25 12:51 | 33.46237 | -73.89572 | 32977 ft | 506 kts | 51° |
| 2026-04-25 12:51 | 33.50569 | -73.82913 | 32974 ft | 505 kts | 51° |
| 2026-04-25 12:52 | 33.54875 | -73.76276 | 32977 ft | 505 kts | 51° |
| 2026-04-25 12:52 | 33.58984 | -73.69936 | 32973 ft | 505 kts | 51° |
| 2026-04-25 12:53 | 33.63268 | -73.63316 | 32977 ft | 505 kts | 51° |
| 2026-04-25 12:53 | 33.67576 | -73.56642 | 32971 ft | 505 kts | 51° |
| 2026-04-25 12:54 | 33.71880 | -73.49965 | 32974 ft | 505 kts | 51° |
| 2026-04-25 12:54 | 33.76169 | -73.43289 | 32973 ft | 505 kts | 51° |
| 2026-04-25 12:55 | 33.79632 | -73.37622 | 32963 ft | 506 kts | 54° |
| 2026-04-25 12:55 | 33.83991 | -73.29200 | 32840 ft | 510 kts | 60° |
| 2026-04-25 12:56 | 33.85599 | -73.25392 | 32724 ft | 512 kts | 64° |
| 2026-04-25 12:56 | 33.87032 | -73.21466 | 32585 ft | 515 kts | 67° |
| 2026-04-25 12:56 | 33.88289 | -73.17409 | 32408 ft | 517 kts | 70° |
| 2026-04-25 12:56 | 33.89363 | -73.13272 | 32192 ft | 520 kts | 73° |
| 2026-04-25 12:57 | 33.90269 | -73.09091 | 31949 ft | 522 kts | 76° |
| 2026-04-25 12:57 | 33.91048 | -73.04813 | 31685 ft | 524 kts | 78° |
| 2026-04-25 12:57 | 33.91730 | -73.00480 | 31407 ft | 526 kts | 79° |
| 2026-04-25 12:57 | 33.92353 | -72.96140 | 31100 ft | 528 kts | 79° |
| 2026-04-25 12:58 | 33.92979 | -72.91761 | 30746 ft | 530 kts | 79° |
| 2026-04-25 12:58 | 33.93663 | -72.87382 | 30320 ft | 533 kts | 77° |
| 2026-04-25 12:58 | 33.94479 | -72.83008 | 29737 ft | 536 kts | 75° |
| 2026-04-25 12:58 | 33.95513 | -72.78663 | 28833 ft | 542 kts | 71° |